createdAt,value
2022-11-02T00:00:21.168Z,0.00
2022-11-02T00:01:21.226Z,0.00
2022-11-02T00:02:21.147Z,0.00
2022-11-02T00:03:21.048Z,0.00
2022-11-02T00:04:21.021Z,0.00
2022-11-02T00:05:20.966Z,0.00
2022-11-02T00:06:20.938Z,0.00
2022-11-02T00:07:20.902Z,0.00
2022-11-02T00:08:20.848Z,0.00
2022-11-02T00:09:20.810Z,0.00
2022-11-02T00:10:20.767Z,0.00
2022-11-02T00:11:20.730Z,0.00
2022-11-02T00:12:20.692Z,0.00
2022-11-02T00:13:20.661Z,0.00
2022-11-02T00:14:20.608Z,0.00
2022-11-02T00:15:20.566Z,0.00
2022-11-02T00:16:20.531Z,0.00
2022-11-02T00:17:20.488Z,0.00
2022-11-02T00:18:20.454Z,0.00
2022-11-02T00:19:20.421Z,0.00
2022-11-02T00:20:20.368Z,0.00
2022-11-02T00:21:20.328Z,0.00
2022-11-02T00:22:20.287Z,0.00
2022-11-02T00:23:20.246Z,0.00
2022-11-02T00:24:20.218Z,0.00
2022-11-02T00:25:20.163Z,0.00
2022-11-02T00:26:20.126Z,0.00
2022-11-02T00:27:20.086Z,0.00
2022-11-02T00:28:20.090Z,0.00
2022-11-02T00:29:20.006Z,0.00
2022-11-02T00:30:19.991Z,0.00
2022-11-02T00:31:19.927Z,0.00
2022-11-02T00:32:19.887Z,0.00
2022-11-02T00:33:19.842Z,0.00
2022-11-02T00:34:19.823Z,0.00
2022-11-02T00:35:19.774Z,0.00
2022-11-02T00:36:19.747Z,0.00
2022-11-02T00:37:19.711Z,0.00
2022-11-02T00:38:19.646Z,0.00
2022-11-02T00:39:19.603Z,0.00
2022-11-02T00:40:19.566Z,0.00
2022-11-02T00:41:19.519Z,0.00
2022-11-02T00:42:19.513Z,0.00
2022-11-02T00:43:19.451Z,0.00
2022-11-02T00:44:19.402Z,0.00
2022-11-02T00:45:19.362Z,0.00
2022-11-02T00:46:19.320Z,0.00
2022-11-02T00:47:19.316Z,0.00
2022-11-02T00:48:19.256Z,0.00
2022-11-02T00:49:19.205Z,0.00
2022-11-02T00:50:19.170Z,0.00
2022-11-02T00:51:19.122Z,0.00
2022-11-02T00:52:19.083Z,0.00
2022-11-02T00:53:19.043Z,0.00
2022-11-02T00:54:19.019Z,0.00
2022-11-02T00:55:18.964Z,0.00
2022-11-02T00:56:18.935Z,0.00
2022-11-02T00:57:18.879Z,0.00
2022-11-02T00:58:18.840Z,0.00
2022-11-02T00:59:18.824Z,0.00
2022-11-02T01:00:18.786Z,0.00
2022-11-02T01:01:18.819Z,0.00
2022-11-02T01:02:18.883Z,0.00
2022-11-02T01:03:18.642Z,0.00
2022-11-02T01:04:18.597Z,0.00
2022-11-02T01:05:18.576Z,0.00
2022-11-02T01:06:18.520Z,0.00
2022-11-02T01:07:18.484Z,0.00
2022-11-02T01:08:18.443Z,0.00
2022-11-02T01:09:18.401Z,0.00
2022-11-02T01:10:18.365Z,0.00
2022-11-02T01:11:18.331Z,0.00
2022-11-02T01:12:18.281Z,0.00
2022-11-02T01:13:18.247Z,0.00
2022-11-02T01:14:18.201Z,0.00
2022-11-02T01:15:18.159Z,0.00
2022-11-02T01:16:18.149Z,0.00
2022-11-02T01:17:18.079Z,0.00
2022-11-02T01:18:18.053Z,0.00
2022-11-02T01:19:18.000Z,0.00
2022-11-02T01:20:17.959Z,0.00
2022-11-02T01:21:17.921Z,0.00
2022-11-02T01:22:17.878Z,0.00
2022-11-02T01:23:17.840Z,0.00
2022-11-02T01:24:17.812Z,0.00
2022-11-02T01:25:17.768Z,0.00
2022-11-02T01:26:17.763Z,0.00
2022-11-02T01:27:17.679Z,0.00
2022-11-02T01:28:17.639Z,0.00
2022-11-02T01:29:17.599Z,0.00
2022-11-02T01:30:17.571Z,0.00
2022-11-02T01:31:17.520Z,0.00
2022-11-02T01:32:17.480Z,0.00
2022-11-02T01:33:17.445Z,0.00
2022-11-02T01:34:17.397Z,0.00
2022-11-02T01:35:17.363Z,0.00
2022-11-02T01:36:17.414Z,0.00
2022-11-02T01:37:17.280Z,0.00
2022-11-02T01:38:17.240Z,0.00
2022-11-02T01:39:17.198Z,0.00
2022-11-02T01:40:17.158Z,0.00
2022-11-02T01:41:17.124Z,0.00
2022-11-02T01:42:17.087Z,0.00
2022-11-02T01:43:17.045Z,0.00
2022-11-02T01:44:17.000Z,0.00
2022-11-02T01:45:16.960Z,0.00
2022-11-02T01:46:16.917Z,0.00
2022-11-02T01:47:16.894Z,0.00
2022-11-02T01:48:16.841Z,0.00
2022-11-02T01:49:16.799Z,0.00
2022-11-02T01:50:16.755Z,0.00
2022-11-02T01:51:16.793Z,0.00
2022-11-02T01:52:16.690Z,0.00
2022-11-02T01:53:16.655Z,0.00
2022-11-02T01:54:16.599Z,0.00
2022-11-02T01:55:16.579Z,0.00
2022-11-02T01:56:16.600Z,0.00
2022-11-02T01:57:16.480Z,0.00
2022-11-02T01:58:16.455Z,0.00
2022-11-02T01:59:16.412Z,0.00
2022-11-02T02:00:16.362Z,0.00
2022-11-02T02:01:16.513Z,0.00
2022-11-02T02:02:16.340Z,0.00
2022-11-02T02:03:16.243Z,0.00
2022-11-02T02:04:16.217Z,0.00
2022-11-02T02:05:16.173Z,0.00
2022-11-02T02:06:16.124Z,0.00
2022-11-02T02:07:16.091Z,0.00
2022-11-02T02:08:16.057Z,0.00
2022-11-02T02:09:16.006Z,0.00
2022-11-02T02:10:15.968Z,0.00
2022-11-02T02:11:15.938Z,0.00
2022-11-02T02:12:15.883Z,0.00
2022-11-02T02:13:15.845Z,0.00
2022-11-02T02:14:15.802Z,0.00
2022-11-02T02:15:15.766Z,0.00
2022-11-02T02:16:15.726Z,0.00
2022-11-02T02:17:15.698Z,0.00
2022-11-02T02:18:15.645Z,0.00
2022-11-02T02:19:15.606Z,0.00
2022-11-02T02:20:15.566Z,0.00
2022-11-02T02:21:15.525Z,0.00
2022-11-02T02:22:15.502Z,0.00
2022-11-02T02:23:15.456Z,0.00
2022-11-02T02:24:15.408Z,0.00
2022-11-02T02:25:15.374Z,0.00
2022-11-02T02:26:15.324Z,0.00
2022-11-02T02:27:15.310Z,0.00
2022-11-02T02:28:15.254Z,0.00
2022-11-02T02:29:15.210Z,0.00
2022-11-02T02:30:15.170Z,0.00
2022-11-02T02:31:15.129Z,0.00
2022-11-02T02:32:15.090Z,0.00
2022-11-02T02:33:15.070Z,0.00
2022-11-02T02:34:15.029Z,0.00
2022-11-02T02:35:14.972Z,0.00
2022-11-02T02:36:14.932Z,0.00
2022-11-02T02:37:14.891Z,0.00
2022-11-02T02:38:14.848Z,0.00
2022-11-02T02:39:14.830Z,0.00
2022-11-02T02:40:14.771Z,0.00
2022-11-02T02:41:14.733Z,0.00
2022-11-02T02:42:14.696Z,0.00
2022-11-02T02:43:15.632Z,0.00
2022-11-02T02:44:14.619Z,0.00
2022-11-02T02:45:14.578Z,0.00
2022-11-02T02:46:14.528Z,0.00
2022-11-02T02:47:14.494Z,0.00
2022-11-02T02:48:14.449Z,0.00
2022-11-02T02:49:14.410Z,0.00
2022-11-02T02:50:14.379Z,0.00
2022-11-02T02:51:14.331Z,0.00
2022-11-02T02:52:14.290Z,0.00
2022-11-02T02:53:14.260Z,0.00
2022-11-02T02:54:14.209Z,0.00
2022-11-02T02:55:14.182Z,0.00
2022-11-02T02:56:14.128Z,0.00
2022-11-02T02:57:14.089Z,0.00
2022-11-02T02:58:14.048Z,0.00
2022-11-02T02:59:14.013Z,0.00
2022-11-02T03:00:14.018Z,0.00
2022-11-02T03:01:13.997Z,0.00
2022-11-02T03:02:14.043Z,0.00
2022-11-02T03:03:13.852Z,0.00
2022-11-02T03:04:13.811Z,0.00
2022-11-02T03:05:13.771Z,0.00
2022-11-02T03:06:13.741Z,0.00
2022-11-02T03:07:13.690Z,0.00
2022-11-02T03:08:13.655Z,0.00
2022-11-02T03:09:13.612Z,0.00
2022-11-02T03:10:13.571Z,0.00
2022-11-02T03:11:13.530Z,0.00
2022-11-02T03:12:13.502Z,0.00
2022-11-02T03:13:13.449Z,0.00
2022-11-02T03:14:13.409Z,0.00
2022-11-02T03:15:13.368Z,0.00
2022-11-02T03:16:13.329Z,0.00
2022-11-02T03:17:13.289Z,0.00
2022-11-02T03:19:45.287Z,0.00
2022-11-02T03:20:45.242Z,0.00
2022-11-02T03:21:45.200Z,0.00
2022-11-02T03:22:45.157Z,0.00
2022-11-02T03:23:45.130Z,0.00
2022-11-02T03:24:45.082Z,0.00
2022-11-02T03:25:45.037Z,0.00
2022-11-02T03:26:44.997Z,0.00
2022-11-02T03:27:44.957Z,0.00
2022-11-02T03:28:44.931Z,0.00
2022-11-02T03:29:44.880Z,0.00
2022-11-02T03:30:44.837Z,0.00
2022-11-02T03:31:44.797Z,0.00
2022-11-02T03:32:44.756Z,0.00
2022-11-02T03:33:44.716Z,0.00
2022-11-02T03:34:44.685Z,0.00
2022-11-02T03:35:44.636Z,0.00
2022-11-02T03:36:44.594Z,0.00
2022-11-02T03:37:44.556Z,0.00
2022-11-02T03:38:44.515Z,0.00
2022-11-02T03:39:44.510Z,0.00
2022-11-02T03:40:44.434Z,0.00
2022-11-02T03:41:44.395Z,0.00
2022-11-02T03:42:44.352Z,0.00
2022-11-02T03:43:44.313Z,0.00
2022-11-02T03:44:44.272Z,0.00
2022-11-02T03:45:44.243Z,0.00
2022-11-02T03:46:44.195Z,0.00
2022-11-02T03:47:44.151Z,0.00
2022-11-02T03:48:44.113Z,0.00
2022-11-02T03:49:44.071Z,0.00
2022-11-02T03:50:44.049Z,0.00
2022-11-02T03:51:44.001Z,0.00
2022-11-02T03:52:43.955Z,0.00
2022-11-02T03:53:43.912Z,0.00
2022-11-02T03:54:43.871Z,0.00
2022-11-02T03:55:43.831Z,0.00
2022-11-02T03:56:43.804Z,0.00
2022-11-02T03:57:43.751Z,0.00
2022-11-02T03:58:43.714Z,0.00
2022-11-02T03:59:43.671Z,0.00
2022-11-02T04:00:43.635Z,0.00
2022-11-02T04:01:43.656Z,0.00
2022-11-02T04:02:43.592Z,0.00
2022-11-02T04:03:43.512Z,0.00
2022-11-02T04:04:43.473Z,0.00
2022-11-02T04:05:43.432Z,0.00
2022-11-02T04:06:43.392Z,0.00
2022-11-02T04:07:43.363Z,0.00
2022-11-02T04:08:43.323Z,0.00
2022-11-02T04:09:43.270Z,0.00
2022-11-02T04:10:43.229Z,0.00
2022-11-02T04:11:43.191Z,0.00
2022-11-02T04:12:43.151Z,0.00
2022-11-02T04:13:43.110Z,0.00
2022-11-02T04:14:43.085Z,0.00
2022-11-02T04:15:43.030Z,0.00
2022-11-02T04:16:42.990Z,0.00
2022-11-02T04:17:42.947Z,0.00
2022-11-02T04:18:42.910Z,0.00
2022-11-02T04:19:45.558Z,0.00
2022-11-02T04:20:42.829Z,0.00
2022-11-02T04:21:42.789Z,0.00
2022-11-02T04:22:42.748Z,0.00
2022-11-02T04:23:42.714Z,0.00
2022-11-02T04:24:42.681Z,0.00
2022-11-02T04:25:42.627Z,0.00
2022-11-02T04:26:42.585Z,0.00
2022-11-02T04:27:42.547Z,0.00
2022-11-02T04:28:42.510Z,0.00
2022-11-02T04:29:42.466Z,0.00
2022-11-02T04:30:42.440Z,0.00
2022-11-02T04:31:42.386Z,0.00
2022-11-02T04:32:42.347Z,0.00
2022-11-02T04:33:42.307Z,0.00
2022-11-02T04:34:42.275Z,0.00
2022-11-02T04:35:42.227Z,0.00
2022-11-02T04:36:42.198Z,0.00
2022-11-02T04:37:42.151Z,0.00
2022-11-02T04:38:42.120Z,0.00
2022-11-02T04:39:42.064Z,0.00
2022-11-02T04:40:42.025Z,0.00
2022-11-02T04:41:41.994Z,0.00
2022-11-02T04:42:41.953Z,0.00
2022-11-02T04:43:41.966Z,0.00
2022-11-02T04:44:41.864Z,0.00
2022-11-02T04:45:41.827Z,0.00
2022-11-02T04:46:41.787Z,0.00
2022-11-02T04:47:41.744Z,0.00
2022-11-02T04:48:41.705Z,0.00
2022-11-02T04:49:41.677Z,0.00
2022-11-02T04:50:41.628Z,0.00
2022-11-02T04:51:47.147Z,0.00
2022-11-02T04:52:41.544Z,0.00
2022-11-02T04:53:41.502Z,0.00
2022-11-02T04:54:41.471Z,0.00
2022-11-02T04:55:41.434Z,0.00
2022-11-02T04:56:41.387Z,0.00
2022-11-02T04:58:41.303Z,0.00
2022-11-02T04:59:41.259Z,0.00
2022-11-02T05:00:41.223Z,0.00
2022-11-02T05:01:41.321Z,0.00
2022-11-02T05:02:41.216Z,0.00
2022-11-02T05:03:41.103Z,0.00
2022-11-02T05:04:41.061Z,0.00
2022-11-02T05:05:41.022Z,0.00
2022-11-02T05:06:40.984Z,0.00
2022-11-02T05:07:40.954Z,0.00
2022-11-02T05:08:40.903Z,0.00
2022-11-02T05:09:40.867Z,0.00
2022-11-02T05:10:40.820Z,0.00
2022-11-02T05:11:40.792Z,0.00
2022-11-02T05:12:40.737Z,0.00
2022-11-02T05:13:40.823Z,0.00
2022-11-02T05:14:40.658Z,0.00
2022-11-02T05:15:40.625Z,0.00
2022-11-02T05:16:40.578Z,0.00
2022-11-02T05:17:40.535Z,0.00
2022-11-02T05:18:40.511Z,0.00
2022-11-02T05:19:40.457Z,0.00
2022-11-02T05:20:40.416Z,0.00
2022-11-02T05:21:40.377Z,0.00
2022-11-02T05:22:40.339Z,0.00
2022-11-02T05:23:40.295Z,0.00
2022-11-02T05:24:40.267Z,0.00
2022-11-02T05:25:40.219Z,0.00
2022-11-02T05:26:40.176Z,0.00
2022-11-02T05:27:40.136Z,0.00
2022-11-02T05:28:40.103Z,0.00
2022-11-02T05:29:40.054Z,0.00
2022-11-02T05:30:40.028Z,0.00
2022-11-02T05:31:39.974Z,0.00
2022-11-02T05:32:39.935Z,0.00
2022-11-02T05:33:39.893Z,0.00
2022-11-02T05:34:39.856Z,0.00
2022-11-02T05:35:39.824Z,0.00
2022-11-02T05:36:39.773Z,0.00
2022-11-02T05:37:39.748Z,0.00
2022-11-02T05:39:39.652Z,0.00
2022-11-02T05:40:39.614Z,0.00
2022-11-02T05:41:39.574Z,0.00
2022-11-02T05:42:39.532Z,0.00
2022-11-02T05:43:39.502Z,0.00
2022-11-02T05:44:39.452Z,0.00
2022-11-02T05:45:39.412Z,0.00
2022-11-02T05:46:39.372Z,0.00
2022-11-02T05:47:39.332Z,0.00
2022-11-02T05:48:39.293Z,0.00
2022-11-02T05:49:39.269Z,0.00
2022-11-02T05:50:39.215Z,0.00
2022-11-02T05:51:39.171Z,0.00
2022-11-02T05:52:39.134Z,0.00
2022-11-02T05:53:39.092Z,0.00
2022-11-02T05:54:39.053Z,0.00
2022-11-02T05:55:39.022Z,0.00
2022-11-02T05:56:38.976Z,0.00
2022-11-02T05:57:38.932Z,0.00
2022-11-02T05:58:38.929Z,0.00
2022-11-02T05:59:38.855Z,0.00
2022-11-02T06:00:38.813Z,0.00
2022-11-02T06:01:38.828Z,0.00
2022-11-02T06:02:38.739Z,0.00
2022-11-02T06:03:38.691Z,0.00
2022-11-02T06:04:38.652Z,0.00
2022-11-02T06:05:38.651Z,0.00
2022-11-02T06:06:38.584Z,0.00
2022-11-02T06:07:38.540Z,0.00
2022-11-02T06:08:38.495Z,0.00
2022-11-02T06:09:38.458Z,0.00
2022-11-02T06:10:38.410Z,0.00
2022-11-02T06:11:38.370Z,0.00
2022-11-02T06:12:38.352Z,0.00
2022-11-02T06:13:38.291Z,0.00
2022-11-02T06:14:38.255Z,0.00
2022-11-02T06:15:38.221Z,0.00
2022-11-02T06:16:38.174Z,5.63
2022-11-02T06:17:38.136Z,5.63
2022-11-02T06:18:38.105Z,5.63
2022-11-02T06:19:38.055Z,5.63
2022-11-02T06:20:38.008Z,5.63
2022-11-02T06:21:37.969Z,5.63
2022-11-02T06:22:37.928Z,11.25
2022-11-02T06:23:37.890Z,11.25
2022-11-02T06:24:37.856Z,11.25
2022-11-02T06:25:37.811Z,11.25
2022-11-02T06:26:37.767Z,16.88
2022-11-02T06:27:42.161Z,16.88
2022-11-02T06:28:37.688Z,16.88
2022-11-02T06:29:37.658Z,16.88
2022-11-02T06:30:37.611Z,22.50
2022-11-02T06:31:37.567Z,22.50
2022-11-02T06:32:37.526Z,22.50
2022-11-02T06:33:37.490Z,22.50
2022-11-02T06:34:37.451Z,28.13
2022-11-02T06:35:37.415Z,28.13
2022-11-02T06:36:37.372Z,28.13
2022-11-02T06:37:37.325Z,33.75
2022-11-02T06:38:37.283Z,33.75
2022-11-02T06:40:37.206Z,39.38
2022-11-02T06:41:37.174Z,39.38
2022-11-02T06:42:44.858Z,39.38
2022-11-02T06:43:37.084Z,45.00
2022-11-02T06:44:37.043Z,45.00
2022-11-02T06:45:37.003Z,45.00
2022-11-02T06:46:36.965Z,45.00
2022-11-02T06:47:36.937Z,50.63
2022-11-02T06:48:36.882Z,50.63
2022-11-02T06:49:36.844Z,56.25
2022-11-02T06:50:36.797Z,56.25
2022-11-02T06:51:36.761Z,67.50
2022-11-02T06:52:36.728Z,73.13
2022-11-02T06:53:36.679Z,78.75
2022-11-02T06:54:36.638Z,84.38
2022-11-02T06:55:36.601Z,90.00
2022-11-02T06:56:36.554Z,90.00
2022-11-02T06:57:36.516Z,112.50
2022-11-02T06:58:36.490Z,112.50
2022-11-02T06:59:36.437Z,118.13
2022-11-02T07:00:36.479Z,101.25
2022-11-02T07:01:36.456Z,95.63
2022-11-02T07:02:36.392Z,90.00
2022-11-02T07:03:36.281Z,90.00
2022-11-02T07:04:36.248Z,95.63
2022-11-02T07:05:36.195Z,101.25
2022-11-02T07:06:36.162Z,106.88
2022-11-02T07:07:36.114Z,101.25
2022-11-02T07:08:36.072Z,95.63
2022-11-02T07:09:36.035Z,112.50
2022-11-02T07:10:35.992Z,101.25
2022-11-02T07:11:35.954Z,112.50
2022-11-02T07:12:35.924Z,129.38
2022-11-02T07:13:35.874Z,135.00
2022-11-02T07:14:35.831Z,140.63
2022-11-02T07:15:35.795Z,146.25
2022-11-02T07:16:35.755Z,135.00
2022-11-02T07:17:35.713Z,123.75
2022-11-02T07:18:35.681Z,118.13
2022-11-02T07:19:35.632Z,118.13
2022-11-02T07:20:35.603Z,129.38
2022-11-02T07:21:35.562Z,123.75
2022-11-02T07:22:35.512Z,118.13
2022-11-02T07:23:35.472Z,118.13
2022-11-02T07:24:35.433Z,123.75
2022-11-02T07:25:35.416Z,129.38
2022-11-02T07:26:35.364Z,135.00
2022-11-02T07:27:35.312Z,146.25
2022-11-02T07:28:35.270Z,151.88
2022-11-02T07:29:35.247Z,135.00
2022-11-02T07:30:35.219Z,146.25
2022-11-02T07:31:35.183Z,140.63
2022-11-02T07:32:35.110Z,174.38
2022-11-02T07:33:35.074Z,185.63
2022-11-02T07:34:35.031Z,174.38
2022-11-02T07:35:34.990Z,168.75
2022-11-02T07:36:34.950Z,174.38
2022-11-02T07:37:34.923Z,202.50
2022-11-02T07:38:34.871Z,208.13
2022-11-02T07:39:34.831Z,208.13
2022-11-02T07:40:34.789Z,225.00
2022-11-02T07:41:34.755Z,253.13
2022-11-02T07:42:34.728Z,253.13
2022-11-02T07:43:35.933Z,275.63
2022-11-02T07:44:34.630Z,478.13
2022-11-02T07:45:34.593Z,337.50
2022-11-02T07:46:34.555Z,292.50
2022-11-02T07:47:34.515Z,382.50
2022-11-02T07:48:34.482Z,253.13
2022-11-02T07:49:34.435Z,545.63
2022-11-02T07:50:34.392Z,286.88
2022-11-02T07:51:34.353Z,213.75
2022-11-02T07:52:34.322Z,196.88
2022-11-02T07:53:34.286Z,241.88
2022-11-02T07:54:34.234Z,219.38
2022-11-02T07:55:34.201Z,281.25
2022-11-02T07:56:34.160Z,551.25
2022-11-02T07:57:34.120Z,967.50
2022-11-02T07:58:34.082Z,331.88
2022-11-02T07:59:34.057Z,652.50
2022-11-02T08:00:33.998Z,956.25
2022-11-02T08:01:34.999Z,1051.88
2022-11-02T08:02:33.965Z,1085.63
2022-11-02T08:03:33.986Z,731.25
2022-11-02T08:04:33.843Z,1125.00
2022-11-02T08:05:33.842Z,961.88
2022-11-02T08:06:33.762Z,922.50
2022-11-02T08:07:33.726Z,1096.88
2022-11-02T08:08:33.686Z,1254.38
2022-11-02T08:09:33.650Z,1282.50
2022-11-02T08:10:37.040Z,1350.00
2022-11-02T08:11:33.580Z,1350.00
2022-11-02T08:12:33.533Z,770.63
2022-11-02T08:13:33.497Z,1440.00
2022-11-02T08:14:33.457Z,1434.38
2022-11-02T08:15:33.419Z,1203.75
2022-11-02T08:16:33.396Z,1276.88
2022-11-02T08:17:33.344Z,1254.38
2022-11-02T08:18:33.305Z,1361.25
2022-11-02T08:19:33.275Z,1400.63
2022-11-02T08:20:33.228Z,1479.38
2022-11-02T08:21:33.201Z,1479.38
2022-11-02T08:22:33.166Z,1468.13
2022-11-02T08:23:33.121Z,1389.38
2022-11-02T08:24:33.087Z,1355.63
2022-11-02T08:25:33.060Z,1321.88
2022-11-02T08:26:33.009Z,1293.75
2022-11-02T08:27:32.980Z,1276.88
2022-11-02T08:28:32.955Z,1243.13
2022-11-02T08:29:32.906Z,1276.88
2022-11-02T08:30:32.873Z,1243.13
2022-11-02T08:31:32.834Z,1231.88
2022-11-02T08:32:32.796Z,978.75
2022-11-02T08:33:32.760Z,1243.13
2022-11-02T08:34:32.732Z,1220.63
2022-11-02T08:35:32.685Z,1186.88
2022-11-02T08:36:32.648Z,1170.00
2022-11-02T08:37:32.621Z,1248.75
2022-11-02T08:38:32.581Z,1231.88
2022-11-02T08:39:32.548Z,1186.88
2022-11-02T08:40:32.519Z,1164.38
2022-11-02T08:41:32.495Z,1136.25
2022-11-02T08:42:32.437Z,1040.63
2022-11-02T08:43:32.405Z,478.13
2022-11-02T08:44:32.382Z,663.75
2022-11-02T08:45:48.014Z,478.13
2022-11-02T08:46:32.297Z,1220.63
2022-11-02T08:47:32.265Z,444.38
2022-11-02T08:48:32.228Z,1164.38
2022-11-02T08:49:32.196Z,455.63
2022-11-02T08:50:32.168Z,753.75
2022-11-02T08:51:32.124Z,579.38
2022-11-02T08:52:34.595Z,635.63
2022-11-02T08:53:32.055Z,1198.13
2022-11-02T08:54:32.016Z,1203.75
2022-11-02T08:55:31.985Z,568.13
2022-11-02T08:56:31.959Z,1271.25
2022-11-02T08:57:31.913Z,1248.75
2022-11-02T08:58:31.877Z,1276.88
2022-11-02T08:59:31.853Z,596.25
2022-11-02T09:00:31.806Z,1248.75
2022-11-02T09:01:31.872Z,427.50
2022-11-02T09:02:31.812Z,1220.63
2022-11-02T09:03:31.700Z,1209.38
2022-11-02T09:04:31.665Z,630.00
2022-11-02T09:05:31.647Z,1293.75
2022-11-02T09:06:31.592Z,596.25
2022-11-02T09:07:31.559Z,1406.25
2022-11-02T09:08:31.564Z,1490.63
2022-11-02T09:09:31.488Z,1451.25
2022-11-02T09:10:31.452Z,1136.25
2022-11-02T09:11:31.417Z,483.75
2022-11-02T09:12:31.382Z,753.75
2022-11-02T09:13:31.410Z,748.13
2022-11-02T09:14:31.361Z,1035.00
2022-11-02T09:15:31.277Z,1395.00
2022-11-02T09:16:31.243Z,1383.75
2022-11-02T09:17:31.216Z,1417.50
2022-11-02T09:18:31.213Z,1406.25
2022-11-02T09:19:38.251Z,753.75
2022-11-02T09:20:31.109Z,523.13
2022-11-02T09:21:31.066Z,1417.50
2022-11-02T09:22:31.041Z,1372.50
2022-11-02T09:23:30.994Z,1316.25
2022-11-02T09:24:30.956Z,871.88
2022-11-02T09:25:30.942Z,1018.13
2022-11-02T09:26:31.002Z,1400.63
2022-11-02T09:27:30.858Z,1513.13
2022-11-02T09:28:30.818Z,663.75
2022-11-02T09:29:30.785Z,1350.00
2022-11-02T09:30:30.752Z,1355.63
2022-11-02T09:31:30.729Z,472.50
2022-11-02T09:32:30.679Z,635.63
2022-11-02T09:33:30.651Z,545.63
2022-11-02T09:34:30.603Z,916.88
2022-11-02T09:35:30.577Z,1428.75
2022-11-02T09:36:30.550Z,1209.38
2022-11-02T09:37:30.518Z,444.38
2022-11-02T09:38:30.466Z,405.00
2022-11-02T09:39:30.432Z,1389.38
2022-11-02T09:40:30.395Z,1485.00
2022-11-02T09:41:30.374Z,545.63
2022-11-02T09:42:30.323Z,1468.13
2022-11-02T09:43:32.619Z,1507.50
2022-11-02T09:44:30.255Z,950.63
2022-11-02T09:45:30.223Z,1186.88
2022-11-02T09:46:30.180Z,1423.13
2022-11-02T09:48:30.535Z,1434.38
2022-11-02T09:49:30.074Z,1451.25
2022-11-02T09:50:30.055Z,1496.25
2022-11-02T09:51:30.006Z,1580.63
2022-11-02T09:52:29.965Z,1591.88
2022-11-02T09:53:29.947Z,1597.50
2022-11-02T09:54:29.898Z,1456.88
2022-11-02T09:55:29.861Z,1310.63
2022-11-02T09:56:29.827Z,1665.00
2022-11-02T09:57:29.789Z,663.75
2022-11-02T09:58:29.752Z,742.50
2022-11-02T09:59:29.731Z,1192.50
2022-11-02T10:00:29.683Z,1310.63
2022-11-02T10:01:29.712Z,1051.88
2022-11-02T10:02:29.674Z,517.50
2022-11-02T10:03:29.579Z,489.38
2022-11-02T10:04:29.554Z,455.63
2022-11-02T10:05:29.510Z,416.25
2022-11-02T10:06:29.478Z,410.63
2022-11-02T10:07:29.438Z,1305.00
2022-11-02T10:08:29.400Z,1293.75
2022-11-02T10:09:29.365Z,1271.25
2022-11-02T10:10:29.344Z,1321.88
2022-11-02T10:11:29.331Z,1265.63
2022-11-02T10:12:29.259Z,1220.63
2022-11-02T10:13:29.225Z,1209.38
2022-11-02T10:14:29.208Z,613.13
2022-11-02T10:15:29.154Z,1468.13
2022-11-02T10:16:29.125Z,1395.00
2022-11-02T10:17:29.083Z,1456.88
2022-11-02T10:18:29.049Z,1535.63
2022-11-02T10:19:30.513Z,1485.00
2022-11-02T10:20:28.975Z,1355.63
2022-11-02T10:21:28.951Z,1316.25
2022-11-02T10:22:28.907Z,1344.38
2022-11-02T10:23:28.873Z,1355.63
2022-11-02T10:24:28.848Z,1293.75
2022-11-02T10:25:28.805Z,1372.50
2022-11-02T10:26:28.763Z,1395.00
2022-11-02T10:27:28.728Z,1428.75
2022-11-02T10:28:28.790Z,1468.13
2022-11-02T10:29:28.669Z,1383.75
2022-11-02T10:30:28.628Z,1327.50
2022-11-02T10:31:28.590Z,714.38
2022-11-02T10:32:28.626Z,703.13
2022-11-02T10:33:28.521Z,1327.50
2022-11-02T10:34:28.488Z,1344.38
2022-11-02T10:35:41.223Z,1344.38
2022-11-02T10:36:28.419Z,1276.88
2022-11-02T10:37:28.399Z,1355.63
2022-11-02T10:38:28.350Z,838.13
2022-11-02T10:39:28.317Z,1310.63
2022-11-02T10:40:28.283Z,1428.75
2022-11-02T10:41:28.248Z,1406.25
2022-11-02T10:42:28.214Z,1411.88
2022-11-02T10:43:28.188Z,1518.75
2022-11-02T10:44:28.156Z,1310.63
2022-11-02T10:45:28.107Z,1271.25
2022-11-02T10:46:28.076Z,1372.50
2022-11-02T10:47:28.040Z,1440.00
2022-11-02T10:48:28.007Z,1361.25
2022-11-02T10:49:27.982Z,1389.38
2022-11-02T10:50:27.938Z,1423.13
2022-11-02T10:51:27.905Z,1378.13
2022-11-02T10:52:27.870Z,1400.63
2022-11-02T10:53:40.515Z,1417.50
2022-11-02T10:54:33.307Z,1378.13
2022-11-02T10:55:27.772Z,1361.25
2022-11-02T10:56:27.732Z,1400.63
2022-11-02T10:57:27.694Z,1406.25
2022-11-02T10:58:27.661Z,500.63
2022-11-02T10:59:27.626Z,646.88
2022-11-02T11:00:27.646Z,1344.38
2022-11-02T11:01:27.714Z,1395.00
2022-11-02T11:02:27.524Z,1006.88
2022-11-02T11:03:27.490Z,1276.88
2022-11-02T11:04:27.460Z,950.63
2022-11-02T11:05:27.421Z,1164.38
2022-11-02T11:06:27.385Z,928.13
2022-11-02T11:07:27.359Z,1181.25
2022-11-02T11:08:27.315Z,950.63
2022-11-02T11:09:27.280Z,1243.13
2022-11-02T11:10:27.243Z,1231.88
2022-11-02T11:11:27.210Z,1198.13
2022-11-02T11:12:27.202Z,1158.75
2022-11-02T11:16:27.039Z,1203.75
2022-11-02T11:19:42.351Z,348.75
2022-11-02T11:20:26.909Z,1310.63
2022-11-02T11:21:26.869Z,1321.88
2022-11-02T11:22:26.855Z,1333.13
2022-11-02T11:23:26.799Z,1248.75
2022-11-02T11:24:26.799Z,1282.50
2022-11-02T11:25:28.290Z,1181.25
2022-11-02T11:26:26.694Z,1310.63
2022-11-02T11:27:26.657Z,1321.88
2022-11-02T11:28:26.652Z,1372.50
2022-11-02T11:29:26.590Z,1344.38
2022-11-02T11:30:58.523Z,1310.63
2022-11-02T11:31:26.536Z,1265.63
2022-11-02T11:32:30.191Z,1215.00
2022-11-02T11:33:26.468Z,1080.00
2022-11-02T11:34:26.425Z,720.00
2022-11-02T11:35:26.383Z,1012.50
2022-11-02T11:37:26.315Z,1113.75
2022-11-02T11:38:26.302Z,1209.38
2022-11-02T11:39:26.264Z,1119.38
2022-11-02T11:40:26.218Z,1040.63
2022-11-02T11:41:26.173Z,1091.25
2022-11-02T11:42:26.153Z,1147.50
2022-11-02T11:43:26.106Z,1220.63
2022-11-02T11:44:26.071Z,1186.88
2022-11-02T11:45:26.079Z,1136.25
2022-11-02T11:46:26.005Z,506.25
2022-11-02T11:47:25.974Z,1186.88
2022-11-02T11:48:25.947Z,990.00
2022-11-02T11:49:41.489Z,1181.25
2022-11-02T11:50:29.584Z,455.63
2022-11-02T11:51:26.278Z,348.75
2022-11-02T11:52:31.246Z,337.50
2022-11-02T11:53:25.770Z,1209.38
2022-11-02T11:54:25.724Z,438.75
2022-11-02T11:55:25.685Z,450.00
2022-11-02T11:56:25.652Z,444.38
2022-11-02T11:57:25.678Z,405.00
2022-11-02T11:58:25.579Z,540.00
2022-11-02T11:59:25.560Z,1186.88
2022-11-02T12:00:25.509Z,832.50
2022-11-02T12:01:25.554Z,354.38
2022-11-02T12:02:25.626Z,337.50
2022-11-02T12:03:25.453Z,646.88
2022-11-02T12:04:25.376Z,911.25
2022-11-02T12:05:25.349Z,348.75
2022-11-02T12:06:25.291Z,337.50
2022-11-02T12:07:25.257Z,337.50
2022-11-02T12:08:25.228Z,354.38
2022-11-02T12:09:25.195Z,331.88
2022-11-02T12:10:25.150Z,286.88
2022-11-02T12:11:25.128Z,258.75
2022-11-02T12:12:25.077Z,247.50
2022-11-02T12:13:25.038Z,720.00
2022-11-02T12:14:25.004Z,326.25
2022-11-02T12:15:24.965Z,365.63
2022-11-02T12:16:24.936Z,500.63
2022-11-02T12:17:24.902Z,376.88
2022-11-02T12:18:24.862Z,405.00
2022-11-02T12:19:27.283Z,759.38
2022-11-02T12:20:24.788Z,461.25
2022-11-02T12:21:24.756Z,506.25
2022-11-02T12:22:24.720Z,450.00
2022-11-02T12:23:24.667Z,883.13
2022-11-02T12:24:24.631Z,495.00
2022-11-02T12:25:24.591Z,534.38
2022-11-02T12:26:24.559Z,478.13
2022-11-02T12:27:24.517Z,506.25
2022-11-02T12:28:24.498Z,579.38
2022-11-02T12:29:24.445Z,1141.88
2022-11-02T12:30:24.408Z,1203.75
2022-11-02T12:31:24.379Z,1175.63
2022-11-02T12:32:24.335Z,568.13
2022-11-02T12:33:24.300Z,1057.50
2022-11-02T12:34:24.274Z,1018.13
2022-11-02T12:35:29.463Z,1091.25
2022-11-02T12:36:24.186Z,1158.75
2022-11-02T12:37:39.064Z,1192.50
2022-11-02T12:38:24.189Z,939.38
2022-11-02T12:39:24.074Z,652.50
2022-11-02T12:40:24.052Z,573.75
2022-11-02T12:41:24.016Z,523.13
2022-11-02T12:42:23.987Z,466.88
2022-11-02T12:43:23.925Z,438.75
2022-11-02T12:44:23.892Z,410.63
2022-11-02T12:45:23.859Z,393.75
2022-11-02T12:46:23.833Z,360.00
2022-11-02T12:47:23.782Z,326.25
2022-11-02T12:48:23.745Z,348.75
2022-11-02T12:49:23.710Z,393.75
2022-11-02T12:50:23.673Z,444.38
2022-11-02T12:51:23.636Z,416.25
2022-11-02T12:52:23.611Z,438.75
2022-11-02T12:53:23.575Z,500.63
2022-11-02T12:54:23.522Z,506.25
2022-11-02T12:55:23.488Z,427.50
2022-11-02T12:56:23.450Z,371.25
2022-11-02T12:57:23.423Z,360.00
2022-11-02T12:58:23.380Z,343.13